createdAt,value
2022-08-05T00:00:56.073Z,51.87
2022-08-05T00:03:43.476Z,51.75
2022-08-05T00:06:29.161Z,51.77
2022-08-05T00:09:00.368Z,51.84
2022-08-05T00:11:34.762Z,51.75
2022-08-05T00:14:12.846Z,51.58
2022-08-05T00:16:53.406Z,51.81
2022-08-05T00:19:22.275Z,51.74
2022-08-05T00:21:50.302Z,51.88
2022-08-05T00:24:24.352Z,51.90
2022-08-05T00:26:56.435Z,51.77
2022-08-05T00:29:25.438Z,51.83
2022-08-05T00:32:13.142Z,51.84
2022-08-05T00:34:55.584Z,51.81
2022-08-05T00:37:50.496Z,51.76
2022-08-05T00:40:17.878Z,51.92
2022-08-05T00:42:56.841Z,51.88
2022-08-05T00:45:39.074Z,52.05
2022-08-05T00:48:11.535Z,51.97
2022-08-05T00:50:42.034Z,51.97
2022-08-05T00:54:01.110Z,52.10
2022-08-05T00:55:59.653Z,52.03
2022-08-05T00:58:29.072Z,52.13
2022-08-05T01:00:56.802Z,52.30
2022-08-05T01:03:33.363Z,52.01
2022-08-05T01:06:01.708Z,52.20
2022-08-05T01:08:43.401Z,52.12
2022-08-05T01:11:13.598Z,52.13
2022-08-05T01:13:58.835Z,52.22
2022-08-05T01:16:28.015Z,52.39
2022-08-05T01:18:59.216Z,52.57
2022-08-05T01:21:38.607Z,52.76
2022-08-05T01:24:14.318Z,52.56
2022-08-05T01:26:45.878Z,52.42
2022-08-05T01:29:18.620Z,52.70
2022-08-05T01:31:51.091Z,53.40
2022-08-05T01:34:19.879Z,53.27
2022-08-05T01:36:49.931Z,53.55
2022-08-05T01:39:46.390Z,53.39
2022-08-05T01:42:06.315Z,53.67
2022-08-05T01:44:38.562Z,53.17
2022-08-05T01:47:06.787Z,53.67
2022-08-05T01:50:00.564Z,54.02
2022-08-05T01:52:24.741Z,53.90
2022-08-05T01:54:53.694Z,53.75
2022-08-05T01:58:11.255Z,54.08
2022-08-05T02:00:14.614Z,53.99
2022-08-05T02:02:46.461Z,53.74
2022-08-05T02:05:18.932Z,54.05
2022-08-05T02:08:00.061Z,54.31
2022-08-05T02:10:28.828Z,54.34
2022-08-05T02:12:57.200Z,54.07
2022-08-05T02:15:33.368Z,54.23
2022-08-05T02:18:32.282Z,54.23
2022-08-05T02:20:53.198Z,54.29
2022-08-05T02:23:22.327Z,54.06
2022-08-05T02:25:50.644Z,54.17
2022-08-05T02:28:28.387Z,54.22
2022-08-05T02:30:59.404Z,54.56
2022-08-05T02:33:35.882Z,54.54
2022-08-05T02:36:06.518Z,54.75
2022-08-05T02:38:36.991Z,55.04
2022-08-05T02:41:06.497Z,54.91
2022-08-05T02:44:05.983Z,54.90
2022-08-05T02:46:33.546Z,54.75
2022-08-05T02:49:02.065Z,54.77
2022-08-05T02:52:02.745Z,54.63
2022-08-05T02:54:36.019Z,54.71
2022-08-05T02:57:05.226Z,54.76
2022-08-05T02:59:50.445Z,54.83
2022-08-05T03:02:21.862Z,54.89
2022-08-05T03:04:53.114Z,54.88
2022-08-05T03:08:00.559Z,54.81
2022-08-05T03:10:09.328Z,55.11
2022-08-05T03:12:37.151Z,54.99
2022-08-05T03:15:06.858Z,55.09
2022-08-05T03:17:41.418Z,54.81
2022-08-05T03:20:10.473Z,54.79
2022-08-05T03:22:44.358Z,54.80
2022-08-05T03:25:33.974Z,54.42
2022-08-05T03:28:02.609Z,54.57
2022-08-05T03:30:33.831Z,54.61
2022-08-05T03:33:03.190Z,54.50
2022-08-05T03:35:30.925Z,54.45
2022-08-05T03:38:01.809Z,54.18
2022-08-05T03:40:32.478Z,54.20
2022-08-05T03:43:15.815Z,54.21
2022-08-05T03:45:57.645Z,54.29
2022-08-05T03:48:29.172Z,54.36
2022-08-05T03:52:39.200Z,54.38
2022-08-05T03:55:07.197Z,54.28
2022-08-05T03:56:37.970Z,54.48
2022-08-05T03:59:09.787Z,54.25
2022-08-05T04:01:37.678Z,54.38
2022-08-05T04:04:10.694Z,54.21
2022-08-05T04:06:38.487Z,54.24
2022-08-05T04:09:15.214Z,54.15
2022-08-05T04:11:52.401Z,53.95
2022-08-05T04:14:30.663Z,54.08
2022-08-05T04:16:58.690Z,54.00
2022-08-05T04:19:27.938Z,54.19
2022-08-05T04:22:09.258Z,54.22
2022-08-05T04:24:44.433Z,54.32
2022-08-05T04:27:20.217Z,54.01
2022-08-05T04:30:03.750Z,54.20
2022-08-05T04:32:33.258Z,54.13
2022-08-05T04:35:02.387Z,54.07
2022-08-05T04:38:01.516Z,53.92
2022-08-05T04:40:20.577Z,53.92
2022-08-05T04:42:50.202Z,53.96
2022-08-05T04:45:22.900Z,54.03
2022-08-05T04:48:04.016Z,53.98
2022-08-05T04:50:37.399Z,54.01
2022-08-05T04:53:20.629Z,53.84
2022-08-05T04:56:00.081Z,54.10
2022-08-05T04:58:36.549Z,54.01
2022-08-05T05:01:04.170Z,54.25
2022-08-05T05:03:32.500Z,54.06
2022-08-05T05:06:35.821Z,54.40
2022-08-05T05:08:59.680Z,54.19
2022-08-05T05:11:41.383Z,54.42
2022-08-05T05:14:10.296Z,54.60
2022-08-05T05:16:44.012Z,54.46
2022-08-05T05:19:18.577Z,54.62
2022-08-05T05:21:48.563Z,54.87
2022-08-05T05:24:23.141Z,54.78
2022-08-05T05:27:10.675Z,54.82
2022-08-05T05:30:04.316Z,54.86
2022-08-05T05:32:29.526Z,54.88
2022-08-05T05:34:57.204Z,55.11
2022-08-05T05:37:37.270Z,55.26
2022-08-05T05:40:15.453Z,55.12
2022-08-05T05:42:42.994Z,55.19
2022-08-05T05:45:14.834Z,55.19
2022-08-05T05:48:06.424Z,55.56
2022-08-05T05:50:30.971Z,55.57
2022-08-05T05:53:00.037Z,55.64
2022-08-05T05:55:52.012Z,55.97
2022-08-05T05:58:15.231Z,56.22
2022-08-05T06:00:46.441Z,56.23
2022-08-05T06:03:40.182Z,55.87
2022-08-05T06:06:01.636Z,55.51
2022-08-05T06:08:32.619Z,55.33
2022-08-05T06:11:00.608Z,55.35
2022-08-05T06:13:28.121Z,55.10
2022-08-05T06:16:29.830Z,55.31
2022-08-05T06:18:55.779Z,55.12
2022-08-05T06:21:36.832Z,55.01
2022-08-05T06:24:07.819Z,55.00
2022-08-05T06:26:39.869Z,55.45
2022-08-05T06:29:25.185Z,55.34
2022-08-05T06:32:21.005Z,55.62
2022-08-05T06:34:54.111Z,54.97
2022-08-05T06:37:56.505Z,54.99
2022-08-05T06:40:14.046Z,54.66
2022-08-05T06:42:46.510Z,55.18
2022-08-05T06:45:21.215Z,55.00
2022-08-05T06:48:13.803Z,55.51
2022-08-05T06:50:49.890Z,55.51
2022-08-05T06:53:19.493Z,55.20
2022-08-05T06:55:51.326Z,55.32
2022-08-05T06:58:34.698Z,54.92
2022-08-05T07:01:04.522Z,55.08
2022-08-05T07:03:33.195Z,54.80
2022-08-05T07:06:01.983Z,54.97
2022-08-05T07:08:33.866Z,54.81
2022-08-05T07:11:04.611Z,54.93
2022-08-05T07:13:58.549Z,54.93
2022-08-05T07:17:56.237Z,55.04
2022-08-05T07:20:16.420Z,54.99
2022-08-05T07:22:28.747Z,54.78
2022-08-05T07:24:58.721Z,54.72
2022-08-05T07:27:59.833Z,54.61
2022-08-05T07:30:24.623Z,54.92
2022-08-05T07:32:55.919Z,54.66
2022-08-05T07:36:03.940Z,54.91
2022-08-05T07:38:32.272Z,54.76
2022-08-05T07:41:16.861Z,54.72
2022-08-05T07:43:49.471Z,54.79
2022-08-05T07:46:24.588Z,54.85
2022-08-05T07:49:02.709Z,54.68
2022-08-05T07:51:37.240Z,54.68
2022-08-05T07:54:05.441Z,54.43
2022-08-05T07:57:00.412Z,54.34
2022-08-05T07:59:31.094Z,54.46
2022-08-05T08:02:15.207Z,54.63
2022-08-05T08:04:45.405Z,54.53
2022-08-05T08:07:13.242Z,54.19
2022-08-05T08:09:40.752Z,54.32
2022-08-05T08:12:27.528Z,54.61
2022-08-05T08:14:57.266Z,54.53
2022-08-05T08:17:30.457Z,54.47
2022-08-05T08:20:22.114Z,54.49
2022-08-05T08:22:51.043Z,54.58
2022-08-05T08:25:26.375Z,54.50
2022-08-05T08:28:03.475Z,54.23
2022-08-05T08:30:39.215Z,54.49
2022-08-05T08:33:14.801Z,54.46
2022-08-05T08:35:53.831Z,54.52
2022-08-05T08:38:35.435Z,54.32
2022-08-05T08:41:05.572Z,54.56
2022-08-05T08:45:24.265Z,54.55
2022-08-05T08:46:23.029Z,54.56
2022-08-05T08:49:07.841Z,54.57
2022-08-05T08:52:03.854Z,54.29
2022-08-05T08:54:27.517Z,54.53
2022-08-05T08:56:56.435Z,54.30
2022-08-05T08:59:27.615Z,54.24
2022-08-05T09:01:57.322Z,54.31
2022-08-05T09:04:30.731Z,54.45
2022-08-05T09:06:58.796Z,54.34
2022-08-05T09:09:34.808Z,54.33
2022-08-05T09:12:14.386Z,54.29
2022-08-05T09:14:57.115Z,54.44
2022-08-05T09:17:42.919Z,54.20
2022-08-05T09:20:13.463Z,54.28
2022-08-05T09:23:05.843Z,54.43
2022-08-05T09:26:00.898Z,54.16
2022-08-05T09:28:32.078Z,54.33
2022-08-05T09:31:43.975Z,54.39
2022-08-05T09:33:53.791Z,54.16
2022-08-05T09:36:21.409Z,54.33
2022-08-05T09:38:58.728Z,54.43
2022-08-05T09:41:26.293Z,54.23
2022-08-05T09:44:00.409Z,54.35
2022-08-05T09:46:28.619Z,54.23
2022-08-05T09:49:07.859Z,54.44
2022-08-05T09:51:49.709Z,54.25
2022-08-05T09:54:28.823Z,54.34
2022-08-05T09:57:01.358Z,54.45
2022-08-05T09:59:29.477Z,54.32
2022-08-05T10:02:04.605Z,54.21
2022-08-05T10:04:38.635Z,54.13
2022-08-05T10:07:19.894Z,54.31
2022-08-05T10:10:13.854Z,54.29
2022-08-05T10:12:49.164Z,54.21
2022-08-05T10:15:20.646Z,54.19
2022-08-05T10:18:03.835Z,54.14
2022-08-05T10:20:32.721Z,54.17
2022-08-05T10:23:00.895Z,54.09
2022-08-05T10:25:28.416Z,54.24
2022-08-05T10:28:13.551Z,54.10
2022-08-05T10:32:52.876Z,54.09
2022-08-05T10:33:34.255Z,54.13
2022-08-05T10:36:05.006Z,54.25
2022-08-05T10:38:32.957Z,54.13
2022-08-05T10:41:03.681Z,54.08
2022-08-05T10:43:35.823Z,54.10
2022-08-05T10:46:06.299Z,54.06
2022-08-05T10:48:53.011Z,54.09
2022-08-05T10:51:28.869Z,54.01
2022-08-05T10:53:58.206Z,54.13
2022-08-05T10:56:26.838Z,54.30
2022-08-05T10:59:07.210Z,54.16
2022-08-05T11:01:54.914Z,54.05
2022-08-05T11:04:31.016Z,54.37
2022-08-05T11:07:08.137Z,54.05
2022-08-05T11:09:46.752Z,54.25
2022-08-05T11:12:33.225Z,54.14
2022-08-05T11:15:19.564Z,54.17
2022-08-05T11:17:58.705Z,54.26
2022-08-05T11:20:43.869Z,54.21
2022-08-05T11:24:02.795Z,54.25
2022-08-05T11:26:28.503Z,54.14
2022-08-05T11:29:06.652Z,54.15
2022-08-05T11:31:56.713Z,54.38
2022-08-05T11:34:37.177Z,54.13
2022-08-05T11:37:06.157Z,54.17
2022-08-05T11:40:00.457Z,54.08
2022-08-05T11:42:32.324Z,54.36
2022-08-05T11:45:05.847Z,54.19
2022-08-05T11:47:48.777Z,54.39
2022-08-05T11:50:17.700Z,54.32
2022-08-05T11:52:46.228Z,54.24
2022-08-05T11:55:16.573Z,54.30
2022-08-05T11:58:09.498Z,54.29
2022-08-05T12:00:38.342Z,54.15
2022-08-05T12:03:16.597Z,54.09
2022-08-05T12:05:59.407Z,54.09
2022-08-05T12:08:27.492Z,54.22
2022-08-05T12:10:55.164Z,54.17
2022-08-05T12:13:27.908Z,54.19
2022-08-05T12:16:16.417Z,54.17
2022-08-05T12:18:52.300Z,54.15
2022-08-05T12:21:21.214Z,54.27
2022-08-05T12:23:54.652Z,54.06
2022-08-05T12:26:23.197Z,54.25
2022-08-05T12:28:52.926Z,54.09
2022-08-05T12:31:23.656Z,54.02
2022-08-05T12:34:01.484Z,53.88
2022-08-05T12:36:31.026Z,53.99
2022-08-05T12:38:58.790Z,53.98
2022-08-05T12:41:34.531Z,53.97
2022-08-05T12:44:04.053Z,54.09
2022-08-05T12:46:32.426Z,54.05
2022-08-05T12:49:00.786Z,54.05
2022-08-05T12:52:14.235Z,53.96
2022-08-05T12:54:23.340Z,54.06
2022-08-05T12:56:52.357Z,54.00
2022-08-05T12:59:27.474Z,54.12
2022-08-05T13:02:10.115Z,54.21
2022-08-05T13:04:41.864Z,53.94
2022-08-05T13:07:56.139Z,54.08
2022-08-05T13:10:11.020Z,54.01
2022-08-05T13:12:50.735Z,54.10
2022-08-05T13:15:41.129Z,54.17
2022-08-05T13:18:19.898Z,54.04
2022-08-05T13:20:49.390Z,54.25
2022-08-05T13:23:22.142Z,53.94
2022-08-05T13:25:51.613Z,54.08
2022-08-05T13:28:26.676Z,53.82
2022-08-05T13:30:55.544Z,53.81
2022-08-05T13:34:21.276Z,54.01
2022-08-05T13:36:14.354Z,53.91
2022-08-05T13:38:43.214Z,53.93
2022-08-05T13:41:11.120Z,54.12
2022-08-05T13:43:44.562Z,53.85
2022-08-05T13:47:01.952Z,54.09
2022-08-05T13:49:11.784Z,53.83
2022-08-05T13:51:41.203Z,53.95
2022-08-05T13:54:12.378Z,54.10
2022-08-05T13:56:44.947Z,53.91
2022-08-05T13:59:19.498Z,54.15
2022-08-05T14:01:58.016Z,54.09
2022-08-05T14:04:50.069Z,54.13
2022-08-05T14:07:55.563Z,53.96
2022-08-05T14:10:08.695Z,53.95
2022-08-05T14:12:36.409Z,54.07
2022-08-05T14:15:06.022Z,53.86
2022-08-05T14:17:54.912Z,54.02
2022-08-05T14:20:27.420Z,54.03
2022-08-05T14:22:57.516Z,53.91
2022-08-05T14:25:28.116Z,53.93
2022-08-05T14:27:55.907Z,53.98
2022-08-05T14:30:25.551Z,54.00
2022-08-05T14:32:56.686Z,53.82
2022-08-05T14:35:37.050Z,53.91
2022-08-05T14:38:27.814Z,53.95
2022-08-05T14:40:59.920Z,53.94
2022-08-05T14:44:02.502Z,53.83
2022-08-05T14:46:15.604Z,54.02
2022-08-05T14:48:44.567Z,54.08
2022-08-05T14:51:17.703Z,53.80
2022-08-05T14:53:45.367Z,54.00
2022-08-05T14:56:32.834Z,53.89
2022-08-05T14:59:00.572Z,53.87
2022-08-05T15:01:49.060Z,54.01
2022-08-05T15:04:17.222Z,53.99
2022-08-05T15:06:49.248Z,53.82
2022-08-05T15:09:51.156Z,53.92
2022-08-05T15:12:05.536Z,53.91
2022-08-05T15:14:34.821Z,53.80
2022-08-05T15:17:09.759Z,53.72
2022-08-05T15:19:58.176Z,53.81
2022-08-05T15:22:27.249Z,54.00
2022-08-05T15:24:55.381Z,53.81
2022-08-05T15:27:25.456Z,53.85
2022-08-05T15:29:56.551Z,53.76
2022-08-05T15:32:28.676Z,53.65
2022-08-05T15:34:56.590Z,53.75
2022-08-05T15:38:33.060Z,53.59
2022-08-05T15:41:01.187Z,53.79
2022-08-05T15:43:12.688Z,53.81
2022-08-05T15:45:47.688Z,53.75
2022-08-05T15:48:28.750Z,53.75
2022-08-05T15:50:56.590Z,53.73
2022-08-05T15:53:26.592Z,53.88
2022-08-05T15:56:09.120Z,53.80
2022-08-05T15:58:42.058Z,53.77
2022-08-05T16:01:16.640Z,53.67
2022-08-05T16:03:45.127Z,53.88
2022-08-05T16:06:20.142Z,53.68
2022-08-05T16:08:50.974Z,53.69
2022-08-05T16:11:21.087Z,53.77
2022-08-05T16:14:07.959Z,53.80
2022-08-05T16:16:39.337Z,53.73
2022-08-05T16:19:10.353Z,53.83
2022-08-05T16:21:58.836Z,53.74
2022-08-05T16:24:40.548Z,53.74
2022-08-05T16:27:09.751Z,53.88
2022-08-05T16:29:50.091Z,53.69
2022-08-05T16:32:28.685Z,53.73
2022-08-05T16:34:57.277Z,53.60
2022-08-05T16:38:16.887Z,53.75
2022-08-05T16:40:29.246Z,53.60
2022-08-05T16:42:58.169Z,53.77
2022-08-05T16:46:04.178Z,53.79
2022-08-05T16:48:25.771Z,53.77
2022-08-05T16:51:01.438Z,53.67
2022-08-05T16:54:02.171Z,53.68
2022-08-05T16:56:18.793Z,53.82
2022-08-05T16:58:47.461Z,53.84
2022-08-05T17:01:15.187Z,53.49
2022-08-05T17:03:43.112Z,53.71
2022-08-05T17:06:10.831Z,53.48
2022-08-05T17:08:53.061Z,53.69
2022-08-05T17:11:25.527Z,53.63
2022-08-05T17:14:05.883Z,53.64
2022-08-05T17:16:36.446Z,53.62
2022-08-05T17:19:07.815Z,53.78
2022-08-05T17:21:39.774Z,53.81
2022-08-05T17:24:19.469Z,53.62
2022-08-05T17:26:57.934Z,53.52
2022-08-05T17:29:33.915Z,53.69
2022-08-05T17:32:11.935Z,53.68
2022-08-05T17:34:47.518Z,53.69
2022-08-05T17:37:41.232Z,53.43
2022-08-05T17:40:04.336Z,53.81
2022-08-05T17:42:33.489Z,53.50
2022-08-05T17:45:18.005Z,53.54
2022-08-05T17:47:54.483Z,53.59
2022-08-05T17:50:28.103Z,53.51
2022-08-05T17:52:58.995Z,53.69
2022-08-05T17:55:34.073Z,53.72
2022-08-05T17:58:04.300Z,53.76
2022-08-05T18:00:34.568Z,53.66
2022-08-05T18:03:03.113Z,53.70
2022-08-05T18:05:35.481Z,53.52
2022-08-05T18:08:04.582Z,53.63
2022-08-05T18:10:33.637Z,53.54
2022-08-05T18:13:01.992Z,53.62
2022-08-05T18:15:38.605Z,52.61
2022-08-05T18:18:10.848Z,51.48
2022-08-05T18:20:39.197Z,51.96
2022-08-05T18:23:08.994Z,52.81
2022-08-05T18:25:39.207Z,53.41
2022-08-05T18:28:07.336Z,53.31
2022-08-05T18:30:40.322Z,53.42
2022-08-05T18:33:08.622Z,52.06
2022-08-05T18:36:00.526Z,51.73
2022-08-05T18:38:30.845Z,51.89
2022-08-05T18:41:53.250Z,52.15
2022-08-05T18:43:48.611Z,52.14
2022-08-05T18:46:29.093Z,52.58
2022-08-05T18:48:56.850Z,52.93
2022-08-05T18:52:04.446Z,52.95
2022-08-05T18:54:31.856Z,51.89
2022-08-05T18:57:01.080Z,52.00
2022-08-05T18:59:43.729Z,51.66
2022-08-05T19:02:28.061Z,51.71
2022-08-05T19:05:02.338Z,50.88
2022-08-05T19:07:46.391Z,50.50
2022-08-05T19:10:14.546Z,50.39
2022-08-05T19:12:43.126Z,49.74
2022-08-05T19:15:56.743Z,49.92
2022-08-05T19:18:09.053Z,49.94
2022-08-05T19:20:41.352Z,50.25
2022-08-05T19:24:04.501Z,50.79
2022-08-05T19:26:01.665Z,50.81
2022-08-05T19:28:29.979Z,51.37
2022-08-05T19:30:58.132Z,51.73
2022-08-05T19:33:35.904Z,52.42
2022-08-05T19:36:06.323Z,52.60
2022-08-05T19:38:35.568Z,52.91
2022-08-05T19:41:07.165Z,52.97
2022-08-05T19:44:06.019Z,51.86
2022-08-05T19:46:29.158Z,52.03
2022-08-05T19:49:01.099Z,52.44
2022-08-05T19:52:05.439Z,52.46
2022-08-05T19:54:26.761Z,52.00
2022-08-05T19:56:58.974Z,52.33
2022-08-05T19:59:54.651Z,52.37
2022-08-05T20:02:15.069Z,52.79
2022-08-05T20:04:48.470Z,52.72
2022-08-05T20:07:16.191Z,52.76
2022-08-05T20:10:04.960Z,53.16
2022-08-05T20:12:46.343Z,53.34
2022-08-05T20:15:48.288Z,53.58
2022-08-05T20:18:09.786Z,54.60
2022-08-05T20:20:48.773Z,54.85
2022-08-05T20:23:16.390Z,55.63
2022-08-05T20:25:43.979Z,55.87
2022-08-05T20:28:13.687Z,56.22
2022-08-05T20:30:42.325Z,56.52
2022-08-05T20:33:11.283Z,56.41
2022-08-05T20:35:45.550Z,56.38
2022-08-05T20:38:22.855Z,56.36
2022-08-05T20:41:00.098Z,56.36
2022-08-05T20:43:57.460Z,56.55
2022-08-05T20:46:25.212Z,56.62
2022-08-05T20:48:53.573Z,56.38
2022-08-05T20:51:23.917Z,56.78
2022-08-05T20:53:56.273Z,56.87
2022-08-05T20:56:29.824Z,56.90
2022-08-05T20:59:04.071Z,56.67
2022-08-05T21:01:40.253Z,56.58
2022-08-05T21:04:10.795Z,56.67
2022-08-05T21:06:45.222Z,56.62
2022-08-05T21:09:15.851Z,56.44
2022-08-05T21:12:07.741Z,56.68
2022-08-05T21:14:35.289Z,56.89
2022-08-05T21:17:05.098Z,57.18
2022-08-05T21:19:46.726Z,57.69
2022-08-05T21:22:18.383Z,57.79
2022-08-05T21:24:51.825Z,57.73
2022-08-05T21:27:20.646Z,57.85
2022-08-05T21:29:54.216Z,58.38
2022-08-05T21:32:23.574Z,58.21
2022-08-05T21:35:08.481Z,58.18
2022-08-05T21:37:41.437Z,58.17
2022-08-05T21:40:13.787Z,57.69
2022-08-05T21:42:45.309Z,57.23
2022-08-05T21:45:24.054Z,57.48
2022-08-05T21:47:56.018Z,57.30
2022-08-05T21:50:25.232Z,57.45
2022-08-05T21:52:52.897Z,57.63
2022-08-05T21:56:01.440Z,57.52
2022-08-05T21:58:11.654Z,57.58
2022-08-05T22:00:40.149Z,57.76
2022-08-05T22:03:09.889Z,57.51
2022-08-05T22:05:48.940Z,57.60
2022-08-05T22:08:22.239Z,57.70
2022-08-05T22:10:53.329Z,57.64
2022-08-05T22:14:19.560Z,57.51
2022-08-05T22:16:39.115Z,57.60
2022-08-05T22:18:58.435Z,57.06
2022-08-05T22:21:27.140Z,56.98
2022-08-05T22:24:40.648Z,56.65
2022-08-05T22:27:19.714Z,56.42
2022-08-05T22:29:47.457Z,56.45
2022-08-05T22:32:17.533Z,56.30
2022-08-05T22:34:45.808Z,56.24
2022-08-05T22:37:13.608Z,56.52
2022-08-05T22:39:41.344Z,56.36
2022-08-05T22:42:15.321Z,56.56
2022-08-05T22:44:48.385Z,56.79
2022-08-05T22:47:29.061Z,56.84
2022-08-05T22:50:21.778Z,56.80
2022-08-05T22:52:46.552Z,57.01
2022-08-05T22:55:18.897Z,56.84
2022-08-05T22:57:49.372Z,55.69
2022-08-05T23:00:18.250Z,56.16
2022-08-05T23:02:48.780Z,55.84
2022-08-05T23:05:16.401Z,55.20
2022-08-05T23:07:48.657Z,54.37
2022-08-05T23:10:20.224Z,54.46
2022-08-05T23:12:51.687Z,53.58
2022-08-05T23:15:29.475Z,53.17
2022-08-05T23:18:11.366Z,52.68
2022-08-05T23:20:39.408Z,52.88
2022-08-05T23:23:08.891Z,52.80
2022-08-05T23:25:51.215Z,52.53
2022-08-05T23:28:24.143Z,52.07
2022-08-05T23:30:56.968Z,52.02
2022-08-05T23:34:04.915Z,51.49
2022-08-05T23:36:41.427Z,51.23
2022-08-05T23:39:17.461Z,51.19
2022-08-05T23:41:59.978Z,51.11
2022-08-05T23:44:31.442Z,51.38
2022-08-05T23:46:59.308Z,51.20
2022-08-05T23:49:33.817Z,51.29
2022-08-05T23:52:21.190Z,51.32
2022-08-05T23:54:49.367Z,51.49
2022-08-05T23:57:17.009Z,51.65
